sensor_id;sensor_type;location;lat;lon;timestamp;pressure;altitude;pressure_sealevel;temperature;humidity
68399;BME280;56258;52.196;13.868;2022-07-23T00:00:10;101334.13;;;27.51;46.33
68399;BME280;56258;52.196;13.868;2022-07-23T00:02:37;101344.22;;;27.51;46.47
68399;BME280;56258;52.196;13.868;2022-07-23T00:05:04;101340.41;;;27.52;46.19
68399;BME280;56258;52.196;13.868;2022-07-23T00:07:31;101348.38;;;27.53;46.76
68399;BME280;56258;52.196;13.868;2022-07-23T00:09:58;101340.88;;;27.49;46.62
68399;BME280;56258;52.196;13.868;2022-07-23T00:12:25;101338.59;;;27.39;46.98
68399;BME280;56258;52.196;13.868;2022-07-23T00:14:51;101343.22;;;27.45;46.95
68399;BME280;56258;52.196;13.868;2022-07-23T00:17:18;101344.25;;;27.44;46.52
68399;BME280;56258;52.196;13.868;2022-07-23T00:19:45;101351.56;;;27.50;46.44
68399;BME280;56258;52.196;13.868;2022-07-23T00:22:12;101345.72;;;27.47;46.86
68399;BME280;56258;52.196;13.868;2022-07-23T00:24:39;101348.44;;;27.47;46.56
68399;BME280;56258;52.196;13.868;2022-07-23T00:27:05;101346.31;;;27.49;46.63
68399;BME280;56258;52.196;13.868;2022-07-23T00:29:32;101344.78;;;27.59;46.25
68399;BME280;56258;52.196;13.868;2022-07-23T00:31:59;101335.56;;;27.54;46.37
68399;BME280;56258;52.196;13.868;2022-07-23T00:34:26;101343.81;;;27.47;46.47
68399;BME280;56258;52.196;13.868;2022-07-23T00:36:52;101344.66;;;27.48;46.81
68399;BME280;56258;52.196;13.868;2022-07-23T00:39:20;101342.97;;;27.47;46.41
68399;BME280;56258;52.196;13.868;2022-07-23T00:41:50;101334.78;;;27.47;46.85
68399;BME280;56258;52.196;13.868;2022-07-23T00:44:25;101328.88;;;27.50;46.38
68399;BME280;56258;52.196;13.868;2022-07-23T00:46:57;101334.97;;;27.52;46.54
68399;BME280;56258;52.196;13.868;2022-07-23T00:49:27;101338.75;;;27.51;46.41
68399;BME280;56258;52.196;13.868;2022-07-23T00:51:56;101337.06;;;27.50;46.33
68399;BME280;56258;52.196;13.868;2022-07-23T00:54:25;101326.59;;;27.47;46.47
68399;BME280;56258;52.196;13.868;2022-07-23T00:56:52;101322.59;;;27.49;46.17
68399;BME280;56258;52.196;13.868;2022-07-23T00:59:19;101326.97;;;27.57;46.27
68399;BME280;56258;52.196;13.868;2022-07-23T01:01:46;101327.38;;;27.54;46.36
68399;BME280;56258;52.196;13.868;2022-07-23T01:04:16;101321.31;;;27.52;46.47
68399;BME280;56258;52.196;13.868;2022-07-23T01:06:44;101322.59;;;27.49;46.56
68399;BME280;56258;52.196;13.868;2022-07-23T01:09:12;101321.53;;;27.50;46.28
68399;BME280;56258;52.196;13.868;2022-07-23T01:11:39;101326.16;;;27.50;46.34
68399;BME280;56258;52.196;13.868;2022-07-23T01:14:11;101313.72;;;27.54;46.20
68399;BME280;56258;52.196;13.868;2022-07-23T01:16:39;101308.09;;;27.49;46.16
68399;BME280;56258;52.196;13.868;2022-07-23T01:19:06;101308.19;;;27.36;46.73
68399;BME280;56258;52.196;13.868;2022-07-23T01:21:36;101311.13;;;27.34;46.59
68399;BME280;56258;52.196;13.868;2022-07-23T01:24:03;101313.63;;;27.36;47.02
68399;BME280;56258;52.196;13.868;2022-07-23T01:26:30;101307.25;;;27.48;46.70
68399;BME280;56258;52.196;13.868;2022-07-23T01:28:57;101294.06;;;27.45;46.39
68399;BME280;56258;52.196;13.868;2022-07-23T01:31:24;101292.16;;;27.46;46.56
68399;BME280;56258;52.196;13.868;2022-07-23T01:33:56;101291.94;;;27.47;46.76
68399;BME280;56258;52.196;13.868;2022-07-23T01:36:25;101288.38;;;27.47;46.75
68399;BME280;56258;52.196;13.868;2022-07-23T01:38:53;101288.94;;;27.55;46.45
68399;BME280;56258;52.196;13.868;2022-07-23T01:41:20;101279.34;;;27.46;46.41
68399;BME280;56258;52.196;13.868;2022-07-23T01:43:46;101271.16;;;27.46;46.70
68399;BME280;56258;52.196;13.868;2022-07-23T01:46:14;101274.09;;;27.45;46.48
68399;BME280;56258;52.196;13.868;2022-07-23T01:48:42;101265.91;;;27.45;46.45
68399;BME280;56258;52.196;13.868;2022-07-23T01:51:10;101272.84;;;27.41;46.51
68399;BME280;56258;52.196;13.868;2022-07-23T01:53:36;101265.69;;;27.46;46.53
68399;BME280;56258;52.196;13.868;2022-07-23T01:56:03;101264.44;;;27.42;46.44
68399;BME280;56258;52.196;13.868;2022-07-23T01:58:30;101271.56;;;27.43;46.94
68399;BME280;56258;52.196;13.868;2022-07-23T02:00:57;101267.84;;;27.38;47.10
68399;BME280;56258;52.196;13.868;2022-07-23T02:03:24;101259.31;;;27.52;46.62
68399;BME280;56258;52.196;13.868;2022-07-23T02:05:51;101262.50;;;27.49;46.51
68399;BME280;56258;52.196;13.868;2022-07-23T02:08:18;101267.34;;;27.47;46.85
68399;BME280;56258;52.196;13.868;2022-07-23T02:10:45;101267.22;;;27.36;46.74
68399;BME280;56258;52.196;13.868;2022-07-23T02:13:12;101267.69;;;27.32;47.03
68399;BME280;56258;52.196;13.868;2022-07-23T02:15:46;101269.34;;;27.33;46.77
68399;BME280;56258;52.196;13.868;2022-07-23T02:18:13;101274.13;;;27.38;46.96
68399;BME280;56258;52.196;13.868;2022-07-23T02:20:40;101267.84;;;27.38;46.83
68399;BME280;56258;52.196;13.868;2022-07-23T02:23:07;101275.72;;;27.52;46.72
68399;BME280;56258;52.196;13.868;2022-07-23T02:25:34;101272.72;;;27.60;46.15
68399;BME280;56258;52.196;13.868;2022-07-23T02:28:02;101259.09;;;27.54;46.63
68399;BME280;56258;52.196;13.868;2022-07-23T02:30:28;101259.38;;;27.46;46.85
68399;BME280;56258;52.196;13.868;2022-07-23T02:32:55;101252.91;;;27.40;46.97
68399;BME280;56258;52.196;13.868;2022-07-23T02:35:22;101258.75;;;27.44;46.71
68399;BME280;56258;52.196;13.868;2022-07-23T02:37:49;101261.06;;;27.47;46.81
68399;BME280;56258;52.196;13.868;2022-07-23T02:40:17;101259.88;;;27.36;46.74
68399;BME280;56258;52.196;13.868;2022-07-23T02:42:43;101255.84;;;27.39;47.14
68399;BME280;56258;52.196;13.868;2022-07-23T02:45:10;101250.84;;;27.36;47.00
68399;BME280;56258;52.196;13.868;2022-07-23T02:47:37;101247.88;;;27.37;46.79
68399;BME280;56258;52.196;13.868;2022-07-23T02:50:04;101251.47;;;27.38;46.83
68399;BME280;56258;52.196;13.868;2022-07-23T02:52:33;101248.56;;;27.32;46.97
68399;BME280;56258;52.196;13.868;2022-07-23T02:54:59;101236.59;;;27.33;46.71
68399;BME280;56258;52.196;13.868;2022-07-23T02:57:26;101247.75;;;27.25;47.12
68399;BME280;56258;52.196;13.868;2022-07-23T02:59:53;101245.88;;;27.26;46.93
68399;BME280;56258;52.196;13.868;2022-07-23T03:02:19;101246.94;;;27.25;47.08
68399;BME280;56258;52.196;13.868;2022-07-23T03:04:46;101254.88;;;27.26;47.01
68399;BME280;56258;52.196;13.868;2022-07-23T03:07:13;101252.00;;;27.21;47.10
68399;BME280;56258;52.196;13.868;2022-07-23T03:09:39;101240.25;;;27.21;46.63
68399;BME280;56258;52.196;13.868;2022-07-23T03:12:06;101244.22;;;27.18;47.04
68399;BME280;56258;52.196;13.868;2022-07-23T03:14:40;101243.59;;;27.23;46.56
68399;BME280;56258;52.196;13.868;2022-07-23T03:17:07;101252.41;;;27.18;46.67
68399;BME280;56258;52.196;13.868;2022-07-23T03:19:34;101249.69;;;27.18;46.73
68399;BME280;56258;52.196;13.868;2022-07-23T03:22:01;101235.25;;;27.11;46.69
68399;BME280;56258;52.196;13.868;2022-07-23T03:24:27;101225.44;;;27.03;46.69
68399;BME280;56258;52.196;13.868;2022-07-23T03:27:14;101234.41;;;27.11;46.96
68399;BME280;56258;52.196;13.868;2022-07-23T03:29:41;101231.72;;;27.04;47.15
68399;BME280;56258;52.196;13.868;2022-07-23T03:32:08;101232.22;;;26.88;47.15
68399;BME280;56258;52.196;13.868;2022-07-23T03:34:35;101240.16;;;26.89;47.56
68399;BME280;56258;52.196;13.868;2022-07-23T03:37:01;101238.28;;;26.90;46.96
68399;BME280;56258;52.196;13.868;2022-07-23T03:39:31;101232.81;;;26.90;47.60
68399;BME280;56258;52.196;13.868;2022-07-23T03:41:58;101236.16;;;26.92;46.92
68399;BME280;56258;52.196;13.868;2022-07-23T03:44:25;101230.31;;;26.88;47.59
68399;BME280;56258;52.196;13.868;2022-07-23T03:46:52;101243.28;;;26.93;47.41
68399;BME280;56258;52.196;13.868;2022-07-23T03:49:19;101257.13;;;26.98;46.82
68399;BME280;56258;52.196;13.868;2022-07-23T03:51:45;101253.34;;;26.99;46.91
68399;BME280;56258;52.196;13.868;2022-07-23T03:54:13;101257.75;;;27.00;46.68
68399;BME280;56258;52.196;13.868;2022-07-23T03:56:39;101271.81;;;26.97;46.63
68399;BME280;56258;52.196;13.868;2022-07-23T03:59:06;101281.88;;;26.96;46.95
68399;BME280;56258;52.196;13.868;2022-07-23T04:01:33;101271.63;;;26.98;47.15
68399;BME280;56258;52.196;13.868;2022-07-23T04:04:00;101283.56;;;27.04;46.69
68399;BME280;56258;52.196;13.868;2022-07-23T04:06:27;101271.41;;;27.00;46.85
68399;BME280;56258;52.196;13.868;2022-07-23T04:08:53;101273.06;;;27.01;46.49
68399;BME280;56258;52.196;13.868;2022-07-23T04:11:20;101265.97;;;26.93;46.94
68399;BME280;56258;52.196;13.868;2022-07-23T04:13:47;101255.28;;;26.85;47.27
68399;BME280;56258;52.196;13.868;2022-07-23T04:16:13;101256.75;;;26.88;46.83
68399;BME280;56258;52.196;13.868;2022-07-23T04:18:40;101266.00;;;26.87;47.01
68399;BME280;56258;52.196;13.868;2022-07-23T04:21:07;101266.63;;;26.89;47.19
68399;BME280;56258;52.196;13.868;2022-07-23T04:23:33;101267.00;;;26.99;46.79
68399;BME280;56258;52.196;13.868;2022-07-23T04:26:00;101268.03;;;27.04;46.79
68399;BME280;56258;52.196;13.868;2022-07-23T04:28:27;101262.78;;;27.03;46.33
68399;BME280;56258;52.196;13.868;2022-07-23T04:30:56;101273.50;;;27.04;46.20
68399;BME280;56258;52.196;13.868;2022-07-23T04:33:23;101276.00;;;26.99;46.42
68399;BME280;56258;52.196;13.868;2022-07-23T04:35:50;101277.50;;;27.02;46.60
68399;BME280;56258;52.196;13.868;2022-07-23T04:38:16;101280.03;;;26.90;46.73
68399;BME280;56258;52.196;13.868;2022-07-23T04:40:43;101292.19;;;26.94;46.68
68399;BME280;56258;52.196;13.868;2022-07-23T04:43:10;101289.00;;;26.97;46.52
68399;BME280;56258;52.196;13.868;2022-07-23T04:45:36;101280.03;;;26.90;46.87
68399;BME280;56258;52.196;13.868;2022-07-23T04:48:05;101281.03;;;26.96;46.50
68399;BME280;56258;52.196;13.868;2022-07-23T04:50:32;101290.94;;;26.90;47.04
68399;BME280;56258;52.196;13.868;2022-07-23T04:52:59;101296.63;;;26.82;47.23
68399;BME280;56258;52.196;13.868;2022-07-23T04:55:26;101300.47;;;26.74;47.22
68399;BME280;56258;52.196;13.868;2022-07-23T04:57:52;101308.84;;;26.73;46.84
68399;BME280;56258;52.196;13.868;2022-07-23T05:00:19;101323.13;;;26.68;47.25
68399;BME280;56258;52.196;13.868;2022-07-23T05:02:45;101330.03;;;26.71;47.01
68399;BME280;56258;52.196;13.868;2022-07-23T05:05:12;101313.06;;;26.69;46.98
68399;BME280;56258;52.196;13.868;2022-07-23T05:07:39;101311.16;;;26.69;47.50
68399;BME280;56258;52.196;13.868;2022-07-23T05:10:06;101308.47;;;26.56;47.66
68399;BME280;56258;52.196;13.868;2022-07-23T05:12:32;101300.88;;;26.71;47.40
68399;BME280;56258;52.196;13.868;2022-07-23T05:14:59;101283.44;;;26.79;47.12
68399;BME280;56258;52.196;13.868;2022-07-23T05:17:26;101281.13;;;26.83;47.07
68399;BME280;56258;52.196;13.868;2022-07-23T05:19:53;101277.31;;;26.90;47.13
68399;BME280;56258;52.196;13.868;2022-07-23T05:22:26;101284.59;;;26.96;47.24
68399;BME280;56258;52.196;13.868;2022-07-23T05:24:52;101269.00;;;27.17;47.31
68399;BME280;56258;52.196;13.868;2022-07-23T05:27:19;101256.41;;;27.22;47.38
68399;BME280;56258;52.196;13.868;2022-07-23T05:29:46;101254.09;;;27.19;47.17
68399;BME280;56258;52.196;13.868;2022-07-23T05:32:12;101247.88;;;27.37;46.57
68399;BME280;56258;52.196;13.868;2022-07-23T05:34:39;101263.19;;;27.45;46.46
68399;BME280;56258;52.196;13.868;2022-07-23T05:37:06;101271.53;;;27.50;45.85
68399;BME280;56258;52.196;13.868;2022-07-23T05:39:32;101255.81;;;27.45;46.17
68399;BME280;56258;52.196;13.868;2022-07-23T05:41:59;101272.41;;;27.44;46.23
68399;BME280;56258;52.196;13.868;2022-07-23T05:44:26;101283.31;;;27.44;46.20
68399;BME280;56258;52.196;13.868;2022-07-23T05:47:00;101299.06;;;27.48;45.87
68399;BME280;56258;52.196;13.868;2022-07-23T05:49:26;101294.25;;;27.44;46.14
68399;BME280;56258;52.196;13.868;2022-07-23T05:51:53;101290.03;;;27.48;45.62
68399;BME280;56258;52.196;13.868;2022-07-23T05:54:20;101305.59;;;27.47;45.95
68399;BME280;56258;52.196;13.868;2022-07-23T05:56:46;101279.56;;;27.45;45.67
68399;BME280;56258;52.196;13.868;2022-07-23T05:59:13;101277.22;;;27.48;45.57
68399;BME280;56258;52.196;13.868;2022-07-23T06:01:42;101269.25;;;27.47;45.49
68399;BME280;56258;52.196;13.868;2022-07-23T06:04:09;101290.91;;;27.42;45.91
68399;BME280;56258;52.196;13.868;2022-07-23T06:06:35;101298.03;;;27.43;45.77
68399;BME280;56258;52.196;13.868;2022-07-23T06:09:02;101304.16;;;27.45;45.84
68399;BME280;56258;52.196;13.868;2022-07-23T06:11:30;101310.47;;;27.39;45.52
68399;BME280;56258;52.196;13.868;2022-07-23T06:13:56;101310.63;;;27.44;45.78
68399;BME280;56258;52.196;13.868;2022-07-23T06:16:23;101315.09;;;27.38;45.40
68399;BME280;56258;52.196;13.868;2022-07-23T06:18:50;101335.50;;;27.29;45.74
68399;BME280;56258;52.196;13.868;2022-07-23T06:21:16;101328.81;;;27.25;46.08
68399;BME280;56258;52.196;13.868;2022-07-23T06:24:03;101328.44;;;27.21;45.65
68399;BME280;56258;52.196;13.868;2022-07-23T06:26:30;101320.88;;;27.17;46.24
68399;BME280;56258;52.196;13.868;2022-07-23T06:28:56;101321.09;;;27.15;45.78
68399;BME280;56258;52.196;13.868;2022-07-23T06:31:24;101332.84;;;27.16;45.95
68399;BME280;56258;52.196;13.868;2022-07-23T06:33:50;101321.75;;;27.11;46.13
68399;BME280;56258;52.196;13.868;2022-07-23T06:36:17;101325.53;;;27.10;46.41
68399;BME280;56258;52.196;13.868;2022-07-23T06:38:44;101346.53;;;27.09;46.49
68399;BME280;56258;52.196;13.868;2022-07-23T06:41:10;101341.47;;;27.13;46.03
68399;BME280;56258;52.196;13.868;2022-07-23T06:43:37;101344.44;;;27.04;46.36
68399;BME280;56258;52.196;13.868;2022-07-23T06:46:04;101348.63;;;27.07;46.19
68399;BME280;56258;52.196;13.868;2022-07-23T06:48:31;101339.44;;;27.01;46.32
68399;BME280;56258;52.196;13.868;2022-07-23T06:50:58;101343.00;;;27.02;46.55
68399;BME280;56258;52.196;13.868;2022-07-23T06:53:25;101349.91;;;26.98;46.37
68399;BME280;56258;52.196;13.868;2022-07-23T06:55:51;101345.69;;;26.95;46.56
68399;BME280;56258;52.196;13.868;2022-07-23T06:58:18;101362.06;;;26.95;46.70
68399;BME280;56258;52.196;13.868;2022-07-23T07:00:46;101376.75;;;26.94;46.35
68399;BME280;56258;52.196;13.868;2022-07-23T07:03:13;101376.56;;;26.96;46.41
68399;BME280;56258;52.196;13.868;2022-07-23T07:05:39;101355.38;;;26.91;46.63
68399;BME280;56258;52.196;13.868;2022-07-23T07:08:06;101336.09;;;26.86;46.23
68399;BME280;56258;52.196;13.868;2022-07-23T07:10:33;101320.13;;;26.90;46.79
68399;BME280;56258;52.196;13.868;2022-07-23T07:13:00;101310.28;;;26.89;46.32
68399;BME280;56258;52.196;13.868;2022-07-23T07:15:26;101300.81;;;26.85;46.86
68399;BME280;56258;52.196;13.868;2022-07-23T07:17:53;101312.38;;;26.87;46.42
68399;BME280;56258;52.196;13.868;2022-07-23T07:20:20;101305.44;;;26.91;46.20
68399;BME280;56258;52.196;13.868;2022-07-23T07:22:47;101286.50;;;26.96;45.93
68399;BME280;56258;52.196;13.868;2022-07-23T07:25:13;101294.28;;;26.99;45.83
68399;BME280;56258;52.196;13.868;2022-07-23T07:27:40;101294.91;;;27.01;46.08
68399;BME280;56258;52.196;13.868;2022-07-23T07:30:07;101290.72;;;26.98;45.80
68399;BME280;56258;52.196;13.868;2022-07-23T07:32:34;101287.56;;;26.95;45.88
68399;BME280;56258;52.196;13.868;2022-07-23T07:35:23;101296.78;;;27.00;46.23
68399;BME280;56258;52.196;13.868;2022-07-23T07:37:49;101288.63;;;26.94;45.88
68399;BME280;56258;52.196;13.868;2022-07-23T07:40:16;101301.44;;;26.93;46.32
68399;BME280;56258;52.196;13.868;2022-07-23T07:42:53;101303.31;;;26.93;46.13
68399;BME280;56258;52.196;13.868;2022-07-23T07:45:20;101326.41;;;26.90;46.11
68399;BME280;56258;52.196;13.868;2022-07-23T07:47:47;101320.13;;;26.90;45.96
68399;BME280;56258;52.196;13.868;2022-07-23T07:50:14;101302.09;;;26.89;45.98
68399;BME280;56258;52.196;13.868;2022-07-23T07:52:42;101283.41;;;26.86;45.92
68399;BME280;56258;52.196;13.868;2022-07-23T07:55:09;101254.50;;;26.78;46.37
68399;BME280;56258;52.196;13.868;2022-07-23T07:57:37;101269.38;;;26.82;46.47
68399;BME280;56258;52.196;13.868;2022-07-23T08:00:06;101281.94;;;26.83;46.15
68399;BME280;56258;52.196;13.868;2022-07-23T08:02:59;101244.66;;;26.70;46.88
68399;BME280;56258;52.196;13.868;2022-07-23T08:05:29;101244.03;;;26.68;46.54
68399;BME280;56258;52.196;13.868;2022-07-23T08:07:58;101243.41;;;26.66;46.31
68399;BME280;56258;52.196;13.868;2022-07-23T08:10:26;101247.44;;;26.64;47.05
68399;BME280;56258;52.196;13.868;2022-07-23T08:12:56;101244.66;;;26.70;46.65
68399;BME280;56258;52.196;13.868;2022-07-23T08:15:24;101250.50;;;26.74;46.19
68399;BME280;56258;52.196;13.868;2022-07-23T08:17:52;101261.19;;;26.82;46.37
68399;BME280;56258;52.196;13.868;2022-07-23T08:20:21;101269.13;;;26.84;46.30
68399;BME280;56258;52.196;13.868;2022-07-23T08:25:20;101268.75;;;26.80;46.53
68399;BME280;56258;52.196;13.868;2022-07-23T08:27:48;101262.84;;;26.83;46.40
68399;BME280;56258;52.196;13.868;2022-07-23T08:30:16;101279.44;;;26.82;46.60
68399;BME280;56258;52.196;13.868;2022-07-23T08:35:30;101271.81;;;26.97;45.76
68399;BME280;56258;52.196;13.868;2022-07-23T08:37:59;101287.16;;;26.98;45.72
68399;BME280;56258;52.196;13.868;2022-07-23T08:40:27;101271.78;;;27.10;45.46
68399;BME280;56258;52.196;13.868;2022-07-23T08:42:54;101273.06;;;27.01;46.03
68399;BME280;56258;52.196;13.868;2022-07-23T08:45:22;101279.78;;;27.05;45.40
68399;BME280;56258;52.196;13.868;2022-07-23T08:47:51;101281.69;;;26.98;45.74
68399;BME280;56258;52.196;13.868;2022-07-23T08:50:19;101290.13;;;26.90;46.22
68399;BME280;56258;52.196;13.868;2022-07-23T08:52:49;101284.84;;;26.95;46.05
68399;BME280;56258;52.196;13.868;2022-07-23T08:55:17;101279.78;;;27.05;45.50
68399;BME280;56258;52.196;13.868;2022-07-23T08:57:47;101286.09;;;26.99;45.82
68399;BME280;56258;52.196;13.868;2022-07-23T09:00:15;101300.81;;;26.91;46.03
68399;BME280;56258;52.196;13.868;2022-07-23T09:02:43;101297.81;;;27.06;45.41
68399;BME280;56258;52.196;13.868;2022-07-23T09:05:12;101293.56;;;27.23;44.84
68399;BME280;56258;52.196;13.868;2022-07-23T09:08:05;101282.19;;;27.26;44.81
68399;BME280;56258;52.196;13.868;2022-07-23T09:11:01;101291.56;;;27.37;44.54
68399;BME280;56258;52.196;13.868;2022-07-23T09:16:06;101306.19;;;27.49;44.63
68399;BME280;56258;52.196;13.868;2022-07-23T09:18:34;101299.00;;;27.55;44.11
68399;BME280;56258;52.196;13.868;2022-07-23T09:23:47;101313.59;;;27.80;43.79
68399;BME280;56258;52.196;13.868;2022-07-23T09:26:41;101326.34;;;27.86;43.43
68399;BME280;56258;52.196;13.868;2022-07-23T09:29:16;101327.41;;;27.85;43.61
68399;BME280;56258;52.196;13.868;2022-07-23T09:31:58;101329.78;;;27.75;43.97
68399;BME280;56258;52.196;13.868;2022-07-23T09:34:26;101333.09;;;27.84;43.42
68399;BME280;56258;52.196;13.868;2022-07-23T09:36:56;101321.50;;;27.88;43.46
68399;BME280;56258;52.196;13.868;2022-07-23T09:39:31;101324.56;;;27.99;43.04
68399;BME280;56258;52.196;13.868;2022-07-23T09:42:13;101328.25;;;28.11;42.80
68399;BME280;56258;52.196;13.868;2022-07-23T09:44:44;101327.34;;;28.17;42.71
68399;BME280;56258;52.196;13.868;2022-07-23T09:47:11;101325.16;;;28.01;43.07
68399;BME280;56258;52.196;13.868;2022-07-23T09:49:38;101329.03;;;27.93;43.38
68399;BME280;56258;52.196;13.868;2022-07-23T09:52:05;101328.25;;;27.86;43.45
68399;BME280;56258;52.196;13.868;2022-07-23T09:54:37;101328.63;;;27.89;43.57
68399;BME280;56258;52.196;13.868;2022-07-23T09:57:09;101317.88;;;27.95;43.01
68399;BME280;56258;52.196;13.868;2022-07-23T09:59:41;101325.16;;;28.01;43.12
68399;BME280;56258;52.196;13.868;2022-07-23T10:02:10;101326.31;;;27.93;43.22
68399;BME280;56258;52.196;13.868;2022-07-23T10:04:39;101336.41;;;27.93;43.10
68399;BME280;56258;52.196;13.868;2022-07-23T10:07:08;101341.88;;;27.93;43.25
68399;BME280;56258;52.196;13.868;2022-07-23T10:09:39;101348.81;;;27.88;43.32
68399;BME280;56258;52.196;13.868;2022-07-23T10:12:12;101355.81;;;27.78;43.59
68399;BME280;56258;52.196;13.868;2022-07-23T10:14:39;101357.94;;;27.76;43.73
68399;BME280;56258;52.196;13.868;2022-07-23T10:17:07;101355.69;;;27.66;43.62
68399;BME280;56258;52.196;13.868;2022-07-23T10:19:34;101361.63;;;27.56;43.98
68399;BME280;56258;52.196;13.868;2022-07-23T10:22:13;101367.69;;;27.58;43.92
68399;BME280;56258;52.196;13.868;2022-07-23T10:30:05;101361.66;;;27.50;44.45
68399;BME280;56258;52.196;13.868;2022-07-23T10:41:09;101373.00;;;27.02;45.51
68399;BME280;56258;52.196;13.868;2022-07-23T10:43:39;101367.13;;;27.05;45.44
68399;BME280;56258;52.196;13.868;2022-07-23T10:46:24;101368.56;;;27.14;45.26
68399;BME280;56258;52.196;13.868;2022-07-23T10:57:08;101392.88;;;27.22;44.56
68399;BME280;56258;52.196;13.868;2022-07-23T11:00:16;101386.75;;;27.27;44.81
68399;BME280;56258;52.196;13.868;2022-07-23T11:02:44;101380.63;;;27.31;44.79
68399;BME280;56258;52.196;13.868;2022-07-23T11:05:14;101374.56;;;27.29;44.66
68399;BME280;56258;52.196;13.868;2022-07-23T11:24:15;101372.91;;;27.28;44.85
68399;BME280;56258;52.196;13.868;2022-07-23T11:26:50;101374.41;;;27.24;44.26
68399;BME280;56258;52.196;13.868;2022-07-23T11:31:58;101380.84;;;27.30;44.21
68399;BME280;56258;52.196;13.868;2022-07-23T11:34:47;101366.13;;;27.38;44.39
68399;BME280;56258;52.196;13.868;2022-07-23T11:37:37;101367.47;;;27.60;44.12
68399;BME280;56258;52.196;13.868;2022-07-23T11:40:09;101371.06;;;27.60;43.56
68399;BME280;56258;52.196;13.868;2022-07-23T11:45:24;101370.88;;;27.55;44.07
68399;BME280;56258;52.196;13.868;2022-07-23T11:47:51;101359.25;;;27.67;43.79
68399;BME280;56258;52.196;13.868;2022-07-23T11:50:18;101367.25;;;27.61;43.65
68399;BME280;56258;52.196;13.868;2022-07-23T11:52:45;101364.69;;;27.73;43.07
68399;BME280;56258;52.196;13.868;2022-07-23T11:55:12;101363.41;;;27.76;42.96
68399;BME280;56258;52.196;13.868;2022-07-23T11:57:40;101370.00;;;27.68;43.51
68399;BME280;56258;52.196;13.868;2022-07-23T12:00:19;101368.56;;;27.52;43.77
68399;BME280;56258;52.196;13.868;2022-07-23T12:02:49;101370.59;;;27.70;43.32
68399;BME280;56258;52.196;13.868;2022-07-23T12:05:24;101364.44;;;27.81;43.46
68399;BME280;56258;52.196;13.868;2022-07-23T12:07:53;101360.66;;;27.82;43.06
68399;BME280;56258;52.196;13.868;2022-07-23T12:15:29;101371.38;;;27.77;43.24
68399;BME280;56258;52.196;13.868;2022-07-23T12:18:00;101372.63;;;27.81;43.12
68399;BME280;56258;52.196;13.868;2022-07-23T12:20:33;101371.31;;;27.90;42.95
68399;BME280;56258;52.196;13.868;2022-07-23T12:23:02;101373.88;;;28.10;42.92
68399;BME280;56258;52.196;13.868;2022-07-23T12:25:32;101381.44;;;28.15;42.40
68399;BME280;56258;52.196;13.868;2022-07-23T12:28:08;101379.13;;;28.12;42.53
68399;BME280;56258;52.196;13.868;2022-07-23T12:30:49;101373.72;;;28.05;42.64
68399;BME280;56258;52.196;13.868;2022-07-23T12:33:31;101373.72;;;28.05;42.72
68399;BME280;56258;52.196;13.868;2022-07-23T12:36:00;101371.97;;;28.11;42.33
68399;BME280;56258;52.196;13.868;2022-07-23T12:38:35;101363.63;;;28.06;42.83
68399;BME280;56258;52.196;13.868;2022-07-23T12:41:03;101362.72;;;28.12;42.88
68399;BME280;56258;52.196;13.868;2022-07-23T12:43:39;101349.13;;;28.30;42.05
68399;BME280;56258;52.196;13.868;2022-07-23T12:46:09;101360.16;;;28.17;42.43
68399;BME280;56258;52.196;13.868;2022-07-23T12:48:38;101357.25;;;28.12;42.66
68399;BME280;56258;52.196;13.868;2022-07-23T12:51:14;101356.00;;;28.14;42.58
68399;BME280;56258;52.196;13.868;2022-07-23T12:53:46;101354.69;;;28.17;42.54
68399;BME280;56258;52.196;13.868;2022-07-23T12:56:19;101350.56;;;28.33;42.18
68399;BME280;56258;52.196;13.868;2022-07-23T12:58:52;101347.06;;;28.51;41.79
68399;BME280;56258;52.196;13.868;2022-07-23T13:06:45;101346.88;;;28.45;42.06
68399;BME280;56258;52.196;13.868;2022-07-23T13:09:16;101344.09;;;28.52;41.86
68399;BME280;56258;52.196;13.868;2022-07-23T13:11:45;101348.91;;;28.75;41.50
68399;BME280;56258;52.196;13.868;2022-07-23T13:14:14;101349.44;;;28.84;41.32
68399;BME280;56258;52.196;13.868;2022-07-23T13:16:43;101337.88;;;29.00;41.00
68399;BME280;56258;52.196;13.868;2022-07-23T13:19:11;101344.72;;;28.91;41.01
68399;BME280;56258;52.196;13.868;2022-07-23T13:21:39;101353.91;;;28.78;41.31
68399;BME280;56258;52.196;13.868;2022-07-23T13:24:07;101350.88;;;28.86;41.08
68399;BME280;56258;52.196;13.868;2022-07-23T13:26:35;101344.56;;;28.86;41.08
68399;BME280;56258;52.196;13.868;2022-07-23T13:29:04;101335.81;;;28.77;41.18
68399;BME280;56258;52.196;13.868;2022-07-23T13:31:35;101340.50;;;28.70;41.47
68399;BME280;56258;52.196;13.868;2022-07-23T13:34:05;101341.25;;;28.59;41.66
68399;BME280;56258;52.196;13.868;2022-07-23T13:36:34;101345.00;;;28.64;41.43
68399;BME280;56258;52.196;13.868;2022-07-23T13:39:01;101342.97;;;28.60;41.72
68399;BME280;56258;52.196;13.868;2022-07-23T13:41:28;101339.81;;;28.56;41.70
68399;BME280;56258;52.196;13.868;2022-07-23T13:43:56;101334.06;;;28.64;41.35
68399;BME280;56258;52.196;13.868;2022-07-23T13:46:23;101343.09;;;28.65;41.47
68399;BME280;56258;52.196;13.868;2022-07-23T13:48:50;101341.59;;;28.69;41.39
68399;BME280;56258;52.196;13.868;2022-07-23T13:51:17;101334.59;;;28.73;41.40
68399;BME280;56258;52.196;13.868;2022-07-23T13:53:45;101328.72;;;28.94;41.29